createdAt,value
2018-09-20T00:00:32.067Z,79.00
2018-09-20T00:03:01.617Z,78.80
2018-09-20T00:05:31.232Z,78.80
2018-09-20T00:08:00.970Z,79.20
2018-09-20T00:10:31.129Z,79.20
2018-09-20T00:13:00.656Z,79.60
2018-09-20T00:15:32.234Z,79.70
2018-09-20T00:18:01.752Z,79.90
2018-09-20T00:20:33.076Z,80.30
2018-09-20T00:23:02.679Z,80.70
2018-09-20T00:25:33.332Z,80.80
2018-09-20T00:28:03.108Z,81.00
2018-09-20T00:30:33.956Z,81.40
2018-09-20T00:33:09.989Z,82.00
2018-09-20T00:35:39.479Z,82.50
2018-09-20T00:38:09.568Z,82.90
2018-09-20T00:40:40.238Z,83.30
2018-09-20T00:43:09.709Z,83.30
2018-09-20T00:45:40.622Z,83.50
2018-09-20T00:48:11.772Z,83.60
2018-09-20T00:50:41.349Z,83.60
2018-09-20T00:53:11.789Z,83.60
2018-09-20T00:55:41.512Z,83.50
2018-09-20T00:58:11.757Z,83.60
2018-09-20T01:00:41.269Z,83.70
2018-09-20T01:03:11.884Z,83.70
2018-09-20T01:05:42.493Z,83.90
2018-09-20T01:08:12.028Z,84.00
2018-09-20T01:10:41.556Z,83.80
2018-09-20T01:13:12.037Z,83.70
2018-09-20T01:15:42.489Z,83.80
2018-09-20T01:18:13.077Z,83.70
2018-09-20T01:20:42.538Z,83.80
2018-09-20T02:03:34.723Z,87.00
2018-09-20T02:06:04.417Z,87.00
2018-09-20T02:08:34.054Z,87.00
2018-09-20T02:11:04.046Z,86.90
2018-09-20T02:13:33.657Z,87.10
2018-09-20T02:16:03.320Z,86.90
2018-09-20T02:18:32.884Z,86.90
2018-09-20T02:21:02.489Z,87.20
2018-09-20T02:23:32.116Z,86.90
2018-09-20T02:26:02.077Z,86.90
2018-09-20T02:28:31.665Z,86.70
2018-09-20T02:31:01.250Z,86.80
2018-09-20T02:33:30.868Z,87.00
2018-09-20T02:36:00.870Z,87.00
2018-09-20T02:38:30.409Z,87.00
2018-09-20T02:41:00.097Z,87.00
2018-09-20T02:43:29.766Z,87.30
2018-09-20T02:45:59.408Z,87.30
2018-09-20T02:48:29.160Z,87.40
2018-09-20T02:50:59.469Z,87.40
2018-09-20T02:53:29.156Z,87.40
2018-09-20T02:55:58.808Z,87.30
2018-09-20T02:58:28.463Z,87.40
2018-09-20T03:00:59.140Z,87.50
2018-09-20T03:03:32.441Z,87.30
2018-09-20T03:06:03.703Z,87.50
2018-09-20T03:08:34.777Z,87.30
2018-09-20T03:11:04.983Z,87.20
2018-09-20T03:13:34.642Z,87.00
2018-09-20T03:16:04.361Z,86.90
2018-09-20T03:18:35.193Z,86.90
2018-09-20T03:21:05.521Z,87.00
2018-09-20T03:23:35.785Z,87.80
2018-09-20T03:26:05.489Z,87.80
2018-09-20T03:28:35.085Z,88.00
2018-09-20T03:31:07.085Z,88.30
2018-09-20T03:33:38.720Z,88.40
2018-09-20T03:36:09.813Z,88.70
2018-09-20T03:38:39.376Z,88.80
2018-09-20T03:41:09.145Z,89.00
2018-09-20T03:43:38.745Z,89.20
2018-09-20T03:46:11.377Z,89.50
2018-09-20T03:48:41.406Z,89.70
2018-09-20T03:51:11.047Z,89.80
2018-09-20T03:53:40.767Z,90.00
2018-09-20T03:56:10.510Z,89.80
2018-09-20T03:58:40.262Z,89.60
2018-09-20T04:01:10.925Z,89.30
2018-09-20T04:03:40.495Z,89.20
2018-09-20T04:06:12.287Z,89.30
2018-09-20T04:08:44.065Z,89.30
2018-09-20T04:11:16.513Z,89.50
2018-09-20T04:13:46.977Z,89.30
2018-09-20T04:16:19.559Z,89.00
2018-09-20T04:18:50.496Z,89.10
2018-09-20T04:21:30.126Z,89.20
2018-09-20T04:24:00.768Z,89.20
2018-09-20T04:26:31.002Z,88.90
2018-09-20T04:29:00.943Z,89.20
2018-09-20T04:31:44.143Z,89.20
2018-09-20T04:34:14.981Z,89.10
2018-09-20T04:36:44.534Z,89.50
2018-09-20T04:39:15.804Z,89.50
2018-09-20T04:41:45.388Z,89.50
2018-09-20T04:44:15.042Z,89.60
2018-09-20T04:46:45.902Z,89.60
2018-09-20T04:49:15.623Z,89.40
2018-09-20T04:51:45.637Z,89.60
2018-09-20T04:54:15.707Z,89.80
2018-09-20T04:56:45.835Z,89.90
2018-09-20T04:59:15.745Z,90.00
2018-09-20T05:01:46.304Z,90.00
2018-09-20T05:04:16.016Z,90.00
2018-09-20T05:06:45.780Z,90.10
2018-09-20T05:09:19.339Z,90.40
2018-09-20T05:11:49.719Z,90.30
2018-09-20T05:14:20.440Z,90.30
2018-09-20T05:16:53.290Z,90.30
2018-09-20T05:19:25.293Z,90.40
2018-09-20T05:21:56.668Z,90.40
2018-09-20T05:24:26.644Z,90.40
2018-09-20T05:26:56.252Z,90.60
2018-09-20T05:29:25.892Z,90.60
2018-09-20T05:31:56.181Z,90.80
2018-09-20T05:34:25.736Z,90.70
2018-09-20T05:36:57.101Z,90.70
2018-09-20T05:39:26.743Z,90.90
2018-09-20T05:41:57.602Z,90.80
2018-09-20T05:44:28.748Z,90.60
2018-09-20T05:46:59.776Z,90.80
2018-09-20T05:49:31.025Z,90.90
2018-09-20T05:52:01.559Z,90.70
2018-09-20T05:54:31.579Z,90.80
2018-09-20T05:57:02.089Z,90.80
2018-09-20T06:00:02.219Z,90.70
2018-09-20T06:02:32.531Z,90.80
2018-09-20T06:05:02.291Z,90.70
2018-09-20T06:07:32.136Z,90.50
2018-09-20T06:10:02.644Z,90.30
2018-09-20T06:12:32.828Z,90.30
2018-09-20T06:15:02.925Z,90.20
2018-09-20T06:17:34.093Z,90.00
2018-09-20T06:20:03.769Z,89.80
2018-09-20T06:22:33.370Z,89.30
2018-09-20T06:25:03.513Z,88.80
2018-09-20T06:27:33.095Z,88.50
2018-09-20T06:30:02.860Z,88.00
2018-09-20T06:32:35.090Z,87.60
2018-09-20T06:35:09.554Z,88.00
2018-09-20T06:37:43.393Z,87.00
2018-09-20T06:40:14.754Z,86.90
2018-09-20T06:42:45.190Z,86.80
2018-09-20T06:45:15.488Z,86.60
2018-09-20T06:47:45.037Z,87.00
2018-09-20T06:50:14.714Z,86.90
2018-09-20T06:52:45.397Z,86.10
2018-09-20T06:55:15.347Z,85.50
2018-09-20T06:57:44.935Z,85.30
2018-09-20T07:00:14.807Z,85.10
2018-09-20T07:02:44.404Z,85.40
2018-09-20T07:05:14.453Z,85.00
2018-09-20T07:07:45.968Z,84.80
2018-09-20T07:10:46.501Z,84.60
2018-09-20T07:13:16.741Z,84.40
2018-09-20T07:15:46.395Z,84.50
2018-09-20T07:18:16.162Z,84.60
2018-09-20T07:20:45.771Z,84.00
2018-09-20T07:23:15.893Z,84.70
2018-09-20T07:25:46.285Z,84.00
2018-09-20T07:28:16.449Z,83.20
2018-09-20T07:30:47.648Z,82.80
2018-09-20T07:33:17.973Z,82.40
2018-09-20T07:35:50.118Z,82.00
2018-09-20T07:38:21.959Z,81.70
2018-09-20T07:40:53.936Z,81.90
2018-09-20T07:43:24.851Z,81.60
2018-09-20T07:45:55.552Z,80.90
2018-09-20T07:48:25.133Z,80.90
2018-09-20T07:50:54.704Z,80.00
2018-09-20T07:53:24.855Z,79.60
2018-09-20T07:55:54.516Z,79.30
2018-09-20T07:58:25.496Z,78.20
2018-09-20T08:00:55.932Z,78.00
2018-09-20T08:03:26.714Z,77.10
2018-09-20T08:05:57.836Z,80.10
2018-09-20T08:08:28.113Z,79.30
2018-09-20T08:10:58.542Z,78.00
2018-09-20T08:13:29.551Z,76.80
2018-09-20T08:16:00.087Z,77.10
2018-09-20T08:18:29.727Z,76.50
2018-09-20T08:21:00.531Z,75.20
2018-09-20T08:23:30.870Z,74.30
2018-09-20T08:26:00.910Z,75.00
2018-09-20T08:28:30.488Z,75.70
2018-09-20T08:31:01.004Z,74.10
2018-09-20T08:33:31.501Z,74.00
2018-09-20T08:36:01.710Z,73.10
2018-09-20T08:38:35.163Z,72.40
2018-09-20T08:41:05.844Z,73.10
2018-09-20T08:43:36.040Z,72.60
2018-09-20T08:46:06.693Z,71.90
2018-09-20T08:48:36.460Z,71.30
2018-09-20T08:51:09.325Z,71.10
2018-09-20T08:53:40.489Z,71.20
2018-09-20T08:56:10.845Z,71.30
2018-09-20T08:58:40.932Z,71.00
2018-09-20T09:01:12.275Z,71.40
2018-09-20T09:03:42.038Z,71.50
2018-09-20T09:06:11.676Z,70.50
2018-09-20T09:08:42.442Z,70.70
2018-09-20T09:11:12.120Z,70.50
2018-09-20T09:13:42.841Z,70.00
2018-09-20T09:16:12.594Z,70.30
2018-09-20T09:18:42.536Z,70.50
2018-09-20T09:21:15.036Z,70.90
2018-09-20T09:23:45.155Z,70.80
2018-09-20T09:26:15.569Z,70.30
2018-09-20T09:28:46.682Z,70.30
2018-09-20T09:31:18.269Z,69.80
2018-09-20T09:33:48.844Z,69.90
2018-09-20T09:36:18.715Z,71.40
2018-09-20T09:39:00.419Z,69.60
2018-09-20T09:41:32.995Z,69.00
2018-09-20T09:44:04.929Z,69.20
2018-09-20T09:46:36.311Z,68.70
2018-09-20T09:49:08.452Z,68.60
2018-09-20T09:51:38.797Z,69.10
2018-09-20T09:54:15.603Z,68.30
2018-09-20T10:00:05.580Z,67.80
2018-09-20T10:02:35.317Z,67.40
2018-09-20T10:05:06.587Z,67.50
2018-09-20T10:07:43.213Z,67.50
2018-09-20T10:10:13.765Z,67.70
2018-09-20T10:12:43.529Z,66.50
2018-09-20T10:15:14.659Z,66.40
2018-09-20T10:17:44.414Z,66.70
2018-09-20T10:20:14.008Z,66.50
2018-09-20T10:22:43.653Z,66.60
2018-09-20T10:25:13.344Z,66.60
2018-09-20T10:27:43.923Z,66.10
2018-09-20T10:30:14.086Z,66.50
2018-09-20T10:32:44.724Z,65.40
2018-09-20T10:35:15.498Z,65.50
2018-09-20T10:37:46.712Z,64.60
2018-09-20T10:40:19.228Z,64.10
2018-09-20T10:42:48.908Z,64.00
2018-09-20T10:45:21.090Z,63.90
2018-09-20T10:47:51.476Z,63.70
2018-09-20T10:50:21.522Z,64.00
2018-09-20T10:52:56.958Z,63.40
2018-09-20T10:55:27.108Z,63.50
2018-09-20T10:57:57.682Z,63.00
2018-09-20T11:00:27.433Z,62.30
2018-09-20T11:02:57.593Z,63.20
2018-09-20T11:05:27.329Z,62.30
2018-09-20T11:07:57.043Z,60.30
2018-09-20T11:10:27.806Z,61.30
2018-09-20T11:12:57.925Z,59.20
2018-09-20T11:15:27.656Z,58.90
2018-09-20T11:18:00.368Z,57.60
2018-09-20T11:20:30.347Z,56.70
2018-09-20T11:23:01.702Z,54.60
2018-09-20T11:25:32.270Z,54.70
2018-09-20T11:28:02.780Z,54.00
2018-09-20T11:30:32.431Z,52.70
2018-09-20T11:33:02.195Z,51.80
2018-09-20T11:35:32.099Z,50.80
2018-09-20T11:38:02.382Z,50.20
2018-09-20T11:40:31.975Z,51.20
2018-09-20T11:43:02.282Z,52.00
2018-09-20T11:45:32.536Z,51.50
2018-09-20T11:48:02.792Z,49.60
2018-09-20T11:50:33.661Z,49.70
2018-09-20T11:53:04.605Z,50.00
2018-09-20T11:55:34.264Z,49.80
2018-09-20T11:58:08.685Z,49.70
2018-09-20T12:00:38.260Z,49.60
2018-09-20T12:03:08.124Z,48.90
2018-09-20T12:05:37.940Z,49.00
2018-09-20T12:08:08.077Z,48.10
2018-09-20T12:10:38.271Z,46.90
2018-09-20T12:13:09.419Z,46.70
2018-09-20T12:15:40.394Z,46.70
2018-09-20T12:18:10.518Z,47.20
2018-09-20T12:20:43.251Z,46.80
2018-09-20T12:23:12.892Z,46.80
2018-09-20T12:25:43.060Z,46.30
2018-09-20T12:28:12.909Z,47.00
2018-09-20T12:30:43.569Z,47.10
2018-09-20T12:33:14.283Z,47.20
2018-09-20T12:35:44.602Z,47.00
2018-09-20T12:38:16.834Z,47.70
2018-09-20T12:40:46.587Z,47.30
2018-09-20T12:43:18.525Z,46.60
2018-09-20T12:45:53.179Z,46.70
2018-09-20T12:48:23.866Z,46.70
2018-09-20T12:50:55.651Z,47.10
2018-09-20T12:53:26.638Z,46.10
2018-09-20T12:55:59.593Z,46.20
2018-09-20T12:58:34.227Z,46.20
2018-09-20T13:01:07.387Z,46.40
2018-09-20T13:03:37.243Z,47.30
2018-09-20T13:06:07.755Z,46.70
2018-09-20T13:08:38.477Z,46.50
2018-09-20T13:11:10.194Z,46.40
2018-09-20T13:13:42.576Z,46.30
2018-09-20T13:16:15.157Z,47.80
2018-09-20T13:18:45.732Z,46.60
2018-09-20T13:21:15.505Z,47.10
2018-09-20T13:23:45.228Z,47.50
2018-09-20T13:26:21.384Z,47.10
2018-09-20T13:28:52.525Z,47.30
2018-09-20T13:31:25.844Z,47.90
2018-09-20T13:33:56.666Z,48.20
2018-09-20T13:36:27.992Z,47.60
2018-09-20T13:38:57.742Z,47.00
2018-09-20T13:41:29.362Z,47.00
2018-09-20T13:44:01.085Z,47.20
2018-09-20T13:46:31.668Z,47.00
2018-09-20T13:49:06.445Z,47.10
2018-09-20T13:51:37.221Z,47.10
2018-09-20T13:54:07.220Z,46.70
2018-09-20T13:56:38.277Z,46.30
2018-09-20T13:59:09.005Z,47.70
2018-09-20T14:01:38.631Z,47.00
2018-09-20T14:04:09.303Z,45.40
2018-09-20T14:06:39.989Z,44.20
2018-09-20T14:09:12.306Z,44.30
2018-09-20T14:11:43.741Z,44.20
2018-09-20T14:14:14.748Z,45.00
2018-09-20T14:16:44.950Z,44.40
2018-09-20T14:19:18.884Z,44.80
2018-09-20T14:21:48.569Z,44.90
2018-09-20T14:24:18.204Z,44.90
2018-09-20T14:26:48.364Z,46.00
2018-09-20T14:29:18.566Z,45.10
2018-09-20T14:32:21.919Z,44.90
2018-09-20T14:34:52.813Z,44.40
2018-09-20T14:37:24.937Z,43.70
2018-09-20T14:39:57.268Z,44.00
2018-09-20T14:42:27.835Z,43.80
2018-09-20T14:44:57.671Z,43.80
2018-09-20T14:47:30.146Z,43.90
2018-09-20T14:50:00.031Z,44.30
2018-09-20T14:52:30.936Z,44.10
2018-09-20T14:55:01.911Z,43.90
2018-09-20T14:57:31.667Z,44.00
2018-09-20T15:00:02.644Z,44.00
2018-09-20T15:02:32.269Z,43.70
2018-09-20T15:05:01.895Z,44.30
2018-09-20T15:07:33.249Z,44.50
2018-09-20T15:10:09.024Z,43.60
2018-09-20T15:12:39.279Z,44.80
2018-09-20T15:15:31.571Z,44.00
2018-09-20T15:18:02.070Z,44.20
2018-09-20T15:20:32.532Z,43.40
2018-09-20T15:23:02.510Z,43.80
2018-09-20T15:25:34.819Z,43.60
2018-09-20T15:28:05.087Z,43.30
2018-09-20T15:30:34.775Z,43.80
2018-09-20T15:33:04.950Z,43.70
2018-09-20T15:35:35.602Z,43.50
2018-09-20T15:38:05.899Z,43.60
2018-09-20T15:40:35.926Z,43.90
2018-09-20T15:43:05.631Z,43.60
2018-09-20T15:45:35.573Z,43.40
2018-09-20T15:48:16.008Z,43.80
2018-09-20T15:50:46.343Z,44.60
2018-09-20T15:53:17.598Z,43.70
2018-09-20T15:55:47.734Z,43.40
2018-09-20T15:58:17.532Z,43.80
2018-09-20T16:00:47.220Z,43.40
2018-09-20T16:03:17.214Z,43.80
2018-09-20T16:05:46.766Z,43.50
2018-09-20T16:08:16.340Z,43.80
2018-09-20T16:10:47.979Z,43.80
2018-09-20T16:13:20.018Z,43.60
2018-09-20T16:15:50.942Z,44.70
2018-09-20T16:18:20.952Z,42.90
2018-09-20T16:20:53.077Z,43.50
2018-09-20T16:23:24.470Z,42.30
2018-09-20T16:25:56.165Z,42.40
2018-09-20T16:28:42.077Z,42.60
2018-09-20T16:31:32.659Z,42.60
2018-09-20T16:34:31.187Z,43.00
2018-09-20T16:37:15.440Z,43.10
2018-09-20T16:39:48.877Z,43.20
2018-09-20T16:42:25.058Z,43.50
2018-09-20T16:44:54.971Z,43.70
2018-09-20T16:47:24.557Z,44.30
2018-09-20T16:49:54.212Z,43.80
2018-09-20T16:52:27.117Z,44.00
2018-09-20T16:54:57.200Z,44.20
2018-09-20T16:57:27.454Z,44.30
2018-09-20T16:59:56.946Z,44.50
2018-09-20T17:02:26.423Z,45.10
2018-09-20T17:04:55.952Z,45.50
2018-09-20T17:07:27.270Z,46.00
2018-09-20T17:09:57.667Z,45.20
2018-09-20T17:12:28.113Z,47.40
2018-09-20T17:14:57.818Z,47.10
2018-09-20T17:17:27.248Z,47.00
2018-09-20T17:20:00.156Z,45.90
2018-09-20T17:22:30.820Z,47.10
2018-09-20T17:25:01.342Z,46.30
2018-09-20T17:27:42.642Z,46.50
2018-09-20T17:30:12.569Z,48.20
2018-09-20T17:32:42.146Z,46.50
2018-09-20T17:35:12.954Z,47.50
2018-09-20T17:37:48.059Z,47.10
2018-09-20T17:40:20.578Z,46.60
2018-09-20T17:42:54.734Z,47.10
2018-09-20T17:45:28.998Z,46.80
2018-09-20T17:48:01.791Z,47.00
2018-09-20T17:50:32.796Z,47.30
2018-09-20T17:53:04.614Z,47.40
2018-09-20T17:55:36.535Z,47.30
2018-09-20T17:58:07.506Z,47.60
2018-09-20T18:00:37.026Z,48.10
2018-09-20T18:03:06.503Z,49.20
2018-09-20T18:05:37.054Z,47.80
2018-09-20T18:08:09.294Z,47.90
2018-09-20T18:10:39.895Z,48.20
2018-09-20T18:13:09.439Z,48.40
2018-09-20T18:15:39.105Z,49.00
2018-09-20T18:18:10.044Z,48.80
2018-09-20T18:20:40.406Z,49.10
2018-09-20T18:23:10.349Z,49.30
2018-09-20T18:25:39.898Z,49.70
2018-09-20T18:28:10.067Z,50.00
2018-09-20T18:30:39.587Z,49.90
2018-09-20T18:33:10.667Z,50.20
2018-09-20T18:35:41.522Z,50.30
2018-09-20T18:38:13.560Z,50.60
2018-09-20T18:40:44.667Z,50.90
2018-09-20T18:43:15.425Z,51.00
2018-09-20T18:45:45.122Z,51.30
2018-09-20T18:48:16.374Z,51.30
2018-09-20T18:50:46.134Z,51.80
2018-09-20T18:53:16.696Z,51.80
2018-09-20T18:55:47.832Z,52.00
2018-09-20T18:58:18.937Z,52.60
2018-09-20T19:00:49.710Z,53.10
2018-09-20T19:03:19.599Z,53.20
2018-09-20T19:05:50.268Z,53.50
2018-09-20T19:08:22.304Z,53.80
2018-09-20T19:10:55.163Z,54.20
2018-09-20T19:13:32.669Z,54.80
2018-09-20T19:16:02.453Z,54.70
2018-09-20T19:18:33.274Z,55.30
2018-09-20T19:21:04.399Z,55.60
2018-09-20T19:23:35.385Z,55.80
2018-09-20T19:26:08.239Z,56.10
2018-09-20T19:28:39.289Z,56.30
2018-09-20T19:31:12.497Z,56.40
2018-09-20T19:33:43.062Z,56.70
2018-09-20T19:36:13.739Z,56.80
2018-09-20T19:38:46.621Z,57.00
2018-09-20T19:41:17.607Z,57.00
2018-09-20T19:43:48.215Z,57.10
2018-09-20T19:46:21.117Z,57.30
2018-09-20T19:48:51.425Z,57.60
2018-09-20T19:51:21.174Z,57.30
2018-09-20T19:53:51.663Z,57.40
2018-09-20T19:56:21.419Z,57.60
2018-09-20T19:58:51.036Z,58.10
2018-09-20T20:01:21.425Z,58.20
2018-09-20T20:03:53.673Z,58.40
2018-09-20T20:06:32.436Z,58.70
2018-09-20T20:09:02.321Z,59.40
2018-09-20T20:11:31.780Z,59.70
2018-09-20T20:14:01.356Z,59.80
2018-09-20T20:16:31.301Z,59.90
2018-09-20T20:19:00.910Z,60.10
2018-09-20T20:21:31.391Z,60.30
2018-09-20T20:24:00.781Z,60.60
2018-09-20T20:26:30.917Z,61.10
2018-09-20T20:29:00.352Z,61.30
2018-09-20T20:31:29.898Z,61.70
2018-09-20T20:33:59.932Z,62.00
2018-09-20T20:36:31.230Z,62.40
2018-09-20T20:39:00.818Z,62.50
2018-09-20T20:41:30.707Z,62.90
2018-09-20T20:44:00.107Z,62.90
2018-09-20T20:46:31.099Z,63.00
2018-09-20T20:49:01.140Z,63.10
2018-09-20T20:51:33.855Z,63.30
2018-09-20T20:54:03.289Z,63.40
2018-09-20T20:56:35.680Z,63.70
2018-09-20T20:59:07.023Z,63.60
2018-09-20T21:01:41.920Z,63.70
2018-09-20T21:04:11.785Z,63.70
2018-09-20T21:06:41.226Z,63.70
2018-09-20T21:09:12.695Z,63.80
2018-09-20T21:11:42.802Z,63.70
2018-09-20T21:14:13.511Z,64.10
2018-09-20T21:16:45.792Z,63.90
2018-09-20T21:19:18.798Z,63.60
2018-09-20T21:21:55.012Z,63.60
2018-09-20T21:24:35.488Z,63.80
2018-09-20T21:27:20.704Z,64.20
2018-09-20T21:29:51.734Z,64.70
2018-09-20T21:35:19.643Z,65.30
2018-09-20T21:37:53.944Z,65.30
2018-09-20T21:40:35.836Z,65.40
2018-09-20T21:43:11.201Z,65.60
2018-09-20T21:45:54.624Z,65.80
2018-09-20T21:48:29.472Z,66.10
2018-09-20T21:51:02.192Z,66.30
2018-09-20T21:53:40.547Z,66.10
2018-09-20T21:56:14.222Z,66.50
2018-09-20T21:58:48.732Z,66.70
2018-09-20T22:01:18.515Z,67.10
2018-09-20T22:03:48.744Z,67.20
2018-09-20T22:06:27.253Z,67.40
2018-09-20T22:08:57.951Z,68.30
2018-09-20T22:11:31.127Z,67.70
2018-09-20T22:14:01.848Z,67.70
2018-09-20T22:16:32.921Z,67.70
2018-09-20T22:19:10.733Z,67.70
2018-09-20T22:21:45.630Z,67.80
2018-09-20T22:24:15.914Z,67.80
2018-09-20T22:26:46.929Z,67.80
2018-09-20T22:29:18.950Z,67.80
2018-09-20T22:31:50.800Z,67.80
2018-09-20T22:34:21.505Z,67.80
2018-09-20T22:36:56.010Z,67.70
2018-09-20T22:39:28.351Z,67.60
2018-09-20T22:41:58.936Z,67.50
2018-09-20T22:44:31.429Z,67.40
2018-09-20T22:47:02.810Z,67.40
2018-09-20T22:49:34.107Z,67.30
2018-09-20T22:52:06.096Z,67.20
2018-09-20T22:54:37.705Z,67.30
2018-09-20T22:57:08.608Z,67.20
2018-09-20T22:59:39.706Z,67.20
2018-09-20T23:02:10.694Z,67.10
2018-09-20T23:04:40.284Z,67.20
2018-09-20T23:07:12.029Z,67.20
2018-09-20T23:09:42.891Z,67.20
2018-09-20T23:12:14.948Z,67.30
2018-09-20T23:14:46.114Z,67.40
2018-09-20T23:17:16.987Z,67.50
2018-09-20T23:19:46.647Z,67.60
2018-09-20T23:22:17.092Z,67.70
2018-09-20T23:24:46.911Z,67.70
2018-09-20T23:27:17.436Z,67.90
2018-09-20T23:29:48.207Z,68.00
2018-09-20T23:32:18.279Z,68.10
2018-09-20T23:34:47.892Z,68.20
2018-09-20T23:37:21.804Z,68.30
2018-09-20T23:39:52.611Z,68.30
2018-09-20T23:42:23.588Z,68.50
2018-09-20T23:44:53.240Z,68.60
2018-09-20T23:47:24.455Z,68.60
2018-09-20T23:49:54.190Z,68.70
2018-09-20T23:52:23.837Z,69.00
2018-09-20T23:54:54.620Z,69.10
2018-09-20T23:57:24.196Z,69.10
2018-09-20T23:59:53.734Z,69.30
